This is the latest recevied weather packets stored in our database for station/object NR5ON-13. If no packets are shown the sender has not sent any weather packets the latest 10 day(s).
| Time | Temp. | Humidity | Pressure | Rain* | Wind** | Luminosity | Snow |
|---|---|---|---|---|---|---|---|
| 1778106520 | 12.22° C | 49% | 1016.5 hPa | 0 mm | - | - | - |
| 1778106225 | 12.22° C | 49% | 1016.7 hPa | 0 mm | - | - | - |
| 1778105910 | 13.33° C | 42% | 1016.6 hPa | 0 mm | - | - | - |
| 1778105614 | 14.44° C | 37% | 1016.3 hPa | 0 mm | - | - | - |
| 1778105320 | 15° C | 35% | 1015.8 hPa | 0 mm | - | - | - |
| 1778105023 | 15° C | 34% | 1015.4 hPa | 0 mm | - | - | - |
| 1778104708 | 15° C | 34% | 1015.4 hPa | 0 mm | - | - | - |
| 1778104417 | 14.44° C | 34% | 1015.4 hPa | 0 mm | - | - | - |
| 1778104122 | 14.44° C | 34% | 1015.4 hPa | 0 mm | - | - | - |
| 1778103809 | 15° C | 33% | 1015.5 hPa | 0 mm | - | - | - |
| 1778103517 | 15° C | 34% | 1015.5 hPa | 0 mm | - | - | - |
| 1778103204 | 15° C | 35% | 1015.4 hPa | 0 mm | - | - | - |
| 1778102911 | 15° C | 36% | 1015.5 hPa | 0 mm | - | - | - |
| 1778102616 | 13.89° C | 38% | 1015.6 hPa | 0 mm | - | - | - |
| 1778102321 | 13.89° C | 39% | 1015.5 hPa | 0 mm | - | - | - |
| 1778102025 | 13.89° C | 39% | 1015.6 hPa | 0 mm | - | - | - |
| 1778101709 | 13.89° C | 36% | 1015.6 hPa | 0 mm | - | - | - |
| 1778101419 | 14.44° C | 36% | 1015.4 hPa | 0 mm | - | - | - |
| 1778101104 | 15° C | 36% | 1015.3 hPa | 0 mm | - | - | - |
| 1778100812 | 15° C | 36% | 1015.2 hPa | 0 mm | - | - | - |
| 1778100516 | 15° C | 37% | 1015.3 hPa | 0 mm | - | - | - |
| 1778100223 | 15.56° C | 37% | 1015.4 hPa | 0 mm | - | - | - |
| 1778099912 | 15° C | 36% | 1015.4 hPa | 0 mm | - | - | - |
| 1778099616 | 15° C | 38% | 1015.5 hPa | 0 mm | - | - | - |
| 1778099324 | 14.44° C | 39% | 1015.6 hPa | 0 mm | - | - | - |
* Rain latest hour (hover to see other rain measurements)
** Current wind speed in m/s (hover to see current wind gust speed)